sensor_id;sensor_type;location;lat;lon;timestamp;P1;durP1;ratioP1;P2;durP2;ratioP2
9665;SDS011;4871;52.004;5.924;2023-03-03T00:00:02;17.30;;;10.70;;
9665;SDS011;4871;52.004;5.924;2023-03-03T00:01:00;17.30;;;10.70;;
9665;SDS011;4871;52.004;5.924;2023-03-03T00:02:00;17.30;;;10.70;;
9665;SDS011;4871;52.004;5.924;2023-03-03T00:03:01;17.30;;;10.70;;
9665;SDS011;4871;52.004;5.924;2023-03-03T00:04:00;17.30;;;10.70;;
9665;SDS011;4871;52.004;5.924;2023-03-03T00:05:00;17.30;;;10.70;;
9665;SDS011;4871;52.004;5.924;2023-03-03T00:06:01;17.30;;;10.70;;
9665;SDS011;4871;52.004;5.924;2023-03-03T00:07:00;17.30;;;10.70;;
9665;SDS011;4871;52.004;5.924;2023-03-03T00:08:00;17.30;;;10.70;;
9665;SDS011;4871;52.004;5.924;2023-03-03T00:09:00;17.30;;;10.70;;
9665;SDS011;4871;52.004;5.924;2023-03-03T00:10:00;17.30;;;10.70;;
9665;SDS011;4871;52.004;5.924;2023-03-03T00:11:02;17.30;;;10.70;;
9665;SDS011;4871;52.004;5.924;2023-03-03T00:12:00;17.30;;;10.70;;
9665;SDS011;4871;52.004;5.924;2023-03-03T00:13:00;17.30;;;10.70;;
9665;SDS011;4871;52.004;5.924;2023-03-03T00:14:00;17.30;;;10.70;;
9665;SDS011;4871;52.004;5.924;2023-03-03T00:15:00;17.30;;;10.70;;
9665;SDS011;4871;52.004;5.924;2023-03-03T00:16:09;17.30;;;10.70;;
9665;SDS011;4871;52.004;5.924;2023-03-03T00:17:00;19.90;;;11.50;;
9665;SDS011;4871;52.004;5.924;2023-03-03T00:18:05;19.90;;;11.50;;
9665;SDS011;4871;52.004;5.924;2023-03-03T00:19:00;19.90;;;11.50;;
9665;SDS011;4871;52.004;5.924;2023-03-03T00:20:00;19.90;;;11.50;;
9665;SDS011;4871;52.004;5.924;2023-03-03T00:21:00;19.90;;;11.50;;
9665;SDS011;4871;52.004;5.924;2023-03-03T00:22:00;19.90;;;11.50;;
9665;SDS011;4871;52.004;5.924;2023-03-03T00:23:04;19.90;;;11.50;;
9665;SDS011;4871;52.004;5.924;2023-03-03T00:24:13;19.90;;;11.50;;
9665;SDS011;4871;52.004;5.924;2023-03-03T00:25:00;19.90;;;11.50;;
9665;SDS011;4871;52.004;5.924;2023-03-03T00:26:00;19.90;;;11.50;;
9665;SDS011;4871;52.004;5.924;2023-03-03T00:27:01;19.90;;;11.50;;
9665;SDS011;4871;52.004;5.924;2023-03-03T00:28:00;19.90;;;11.50;;
9665;SDS011;4871;52.004;5.924;2023-03-03T00:29:01;19.90;;;11.50;;
9665;SDS011;4871;52.004;5.924;2023-03-03T00:30:00;19.90;;;11.50;;
9665;SDS011;4871;52.004;5.924;2023-03-03T00:31:00;19.90;;;11.50;;
9665;SDS011;4871;52.004;5.924;2023-03-03T00:32:08;19.90;;;11.50;;
9665;SDS011;4871;52.004;5.924;2023-03-03T00:33:00;19.90;;;11.50;;
9665;SDS011;4871;52.004;5.924;2023-03-03T00:34:02;19.90;;;11.50;;
9665;SDS011;4871;52.004;5.924;2023-03-03T00:35:00;19.90;;;11.50;;
9665;SDS011;4871;52.004;5.924;2023-03-03T00:37:00;19.90;;;11.50;;
9665;SDS011;4871;52.004;5.924;2023-03-03T00:38:01;19.90;;;11.50;;
9665;SDS011;4871;52.004;5.924;2023-03-03T00:39:10;19.90;;;11.50;;
9665;SDS011;4871;52.004;5.924;2023-03-03T00:40:12;19.90;;;11.50;;
9665;SDS011;4871;52.004;5.924;2023-03-03T00:41:00;19.90;;;11.50;;
9665;SDS011;4871;52.004;5.924;2023-03-03T00:42:08;19.90;;;11.50;;
9665;SDS011;4871;52.004;5.924;2023-03-03T00:43:00;19.90;;;11.50;;
9665;SDS011;4871;52.004;5.924;2023-03-03T00:44:00;19.90;;;11.50;;
9665;SDS011;4871;52.004;5.924;2023-03-03T00:45:00;19.90;;;11.50;;
9665;SDS011;4871;52.004;5.924;2023-03-03T00:46:00;19.90;;;11.50;;
9665;SDS011;4871;52.004;5.924;2023-03-03T00:47:01;19.70;;;11.20;;
9665;SDS011;4871;52.004;5.924;2023-03-03T00:48:06;19.70;;;11.20;;
9665;SDS011;4871;52.004;5.924;2023-03-03T00:49:21;19.70;;;11.20;;
9665;SDS011;4871;52.004;5.924;2023-03-03T00:51:01;19.70;;;11.20;;
9665;SDS011;4871;52.004;5.924;2023-03-03T00:52:00;19.70;;;11.20;;
9665;SDS011;4871;52.004;5.924;2023-03-03T00:53:02;19.70;;;11.20;;
9665;SDS011;4871;52.004;5.924;2023-03-03T00:54:00;19.70;;;11.20;;
9665;SDS011;4871;52.004;5.924;2023-03-03T00:55:00;19.70;;;11.20;;
9665;SDS011;4871;52.004;5.924;2023-03-03T00:56:00;19.70;;;11.20;;
9665;SDS011;4871;52.004;5.924;2023-03-03T00:57:00;19.70;;;11.20;;
9665;SDS011;4871;52.004;5.924;2023-03-03T00:58:00;19.70;;;11.20;;
9665;SDS011;4871;52.004;5.924;2023-03-03T00:59:00;19.70;;;11.20;;
9665;SDS011;4871;52.004;5.924;2023-03-03T01:00:00;19.70;;;11.20;;
9665;SDS011;4871;52.004;5.924;2023-03-03T01:01:00;19.70;;;11.20;;
9665;SDS011;4871;52.004;5.924;2023-03-03T01:02:00;19.70;;;11.20;;
9665;SDS011;4871;52.004;5.924;2023-03-03T01:03:01;19.70;;;11.20;;
9665;SDS011;4871;52.004;5.924;2023-03-03T01:04:00;19.70;;;11.20;;
9665;SDS011;4871;52.004;5.924;2023-03-03T01:05:00;19.70;;;11.20;;
9665;SDS011;4871;52.004;5.924;2023-03-03T01:06:00;19.70;;;11.20;;
9665;SDS011;4871;52.004;5.924;2023-03-03T01:07:00;19.70;;;11.20;;
9665;SDS011;4871;52.004;5.924;2023-03-03T01:08:00;19.70;;;11.20;;
9665;SDS011;4871;52.004;5.924;2023-03-03T01:09:00;19.70;;;11.20;;
9665;SDS011;4871;52.004;5.924;2023-03-03T01:10:00;19.70;;;11.20;;
9665;SDS011;4871;52.004;5.924;2023-03-03T01:11:02;19.70;;;11.20;;
9665;SDS011;4871;52.004;5.924;2023-03-03T01:12:00;19.70;;;11.20;;
9665;SDS011;4871;52.004;5.924;2023-03-03T01:13:00;19.70;;;11.20;;
9665;SDS011;4871;52.004;5.924;2023-03-03T01:14:00;19.70;;;11.20;;
9665;SDS011;4871;52.004;5.924;2023-03-03T01:15:00;19.70;;;11.20;;
9665;SDS011;4871;52.004;5.924;2023-03-03T01:16:00;19.70;;;11.20;;
9665;SDS011;4871;52.004;5.924;2023-03-03T01:17:01;16.50;;;10.10;;
9665;SDS011;4871;52.004;5.924;2023-03-03T01:18:00;16.50;;;10.10;;
9665;SDS011;4871;52.004;5.924;2023-03-03T01:19:00;16.50;;;10.10;;
9665;SDS011;4871;52.004;5.924;2023-03-03T01:20:00;16.50;;;10.10;;
9665;SDS011;4871;52.004;5.924;2023-03-03T01:21:01;16.50;;;10.10;;
9665;SDS011;4871;52.004;5.924;2023-03-03T01:22:00;16.50;;;10.10;;
9665;SDS011;4871;52.004;5.924;2023-03-03T01:23:00;16.50;;;10.10;;
9665;SDS011;4871;52.004;5.924;2023-03-03T01:24:00;16.50;;;10.10;;
9665;SDS011;4871;52.004;5.924;2023-03-03T01:25:02;16.50;;;10.10;;
9665;SDS011;4871;52.004;5.924;2023-03-03T01:26:00;16.50;;;10.10;;
9665;SDS011;4871;52.004;5.924;2023-03-03T01:27:00;16.50;;;10.10;;
9665;SDS011;4871;52.004;5.924;2023-03-03T01:28:00;16.50;;;10.10;;
9665;SDS011;4871;52.004;5.924;2023-03-03T01:29:00;16.50;;;10.10;;
9665;SDS011;4871;52.004;5.924;2023-03-03T01:30:00;16.50;;;10.10;;
9665;SDS011;4871;52.004;5.924;2023-03-03T01:31:00;16.50;;;10.10;;
9665;SDS011;4871;52.004;5.924;2023-03-03T01:32:00;16.50;;;10.10;;
9665;SDS011;4871;52.004;5.924;2023-03-03T01:33:00;16.50;;;10.10;;
9665;SDS011;4871;52.004;5.924;2023-03-03T01:34:00;16.50;;;10.10;;
9665;SDS011;4871;52.004;5.924;2023-03-03T01:35:00;16.50;;;10.10;;
9665;SDS011;4871;52.004;5.924;2023-03-03T01:36:00;16.50;;;10.10;;
9665;SDS011;4871;52.004;5.924;2023-03-03T01:37:00;16.50;;;10.10;;
9665;SDS011;4871;52.004;5.924;2023-03-03T01:38:00;16.50;;;10.10;;
9665;SDS011;4871;52.004;5.924;2023-03-03T01:39:00;16.50;;;10.10;;
9665;SDS011;4871;52.004;5.924;2023-03-03T01:40:00;16.50;;;10.10;;
9665;SDS011;4871;52.004;5.924;2023-03-03T01:41:00;16.50;;;10.10;;
9665;SDS011;4871;52.004;5.924;2023-03-03T01:42:01;16.50;;;10.10;;
9665;SDS011;4871;52.004;5.924;2023-03-03T01:43:00;16.50;;;10.10;;
9665;SDS011;4871;52.004;5.924;2023-03-03T01:44:00;16.50;;;10.10;;
9665;SDS011;4871;52.004;5.924;2023-03-03T01:45:17;16.50;;;10.10;;
9665;SDS011;4871;52.004;5.924;2023-03-03T01:47:00;17.20;;;9.90;;
9665;SDS011;4871;52.004;5.924;2023-03-03T01:48:00;17.20;;;9.90;;
9665;SDS011;4871;52.004;5.924;2023-03-03T01:49:02;17.20;;;9.90;;
9665;SDS011;4871;52.004;5.924;2023-03-03T01:50:01;17.20;;;9.90;;
9665;SDS011;4871;52.004;5.924;2023-03-03T01:51:01;17.20;;;9.90;;
9665;SDS011;4871;52.004;5.924;2023-03-03T01:52:00;17.20;;;9.90;;
9665;SDS011;4871;52.004;5.924;2023-03-03T01:53:00;17.20;;;9.90;;
9665;SDS011;4871;52.004;5.924;2023-03-03T01:54:00;17.20;;;9.90;;
9665;SDS011;4871;52.004;5.924;2023-03-03T01:55:00;17.20;;;9.90;;
9665;SDS011;4871;52.004;5.924;2023-03-03T01:56:00;17.20;;;9.90;;
9665;SDS011;4871;52.004;5.924;2023-03-03T01:57:02;17.20;;;9.90;;
9665;SDS011;4871;52.004;5.924;2023-03-03T01:58:01;17.20;;;9.90;;
9665;SDS011;4871;52.004;5.924;2023-03-03T01:59:00;17.20;;;9.90;;
9665;SDS011;4871;52.004;5.924;2023-03-03T02:00:00;17.20;;;9.90;;
9665;SDS011;4871;52.004;5.924;2023-03-03T02:01:00;17.20;;;9.90;;
9665;SDS011;4871;52.004;5.924;2023-03-03T02:02:00;17.20;;;9.90;;
9665;SDS011;4871;52.004;5.924;2023-03-03T02:03:00;17.20;;;9.90;;
9665;SDS011;4871;52.004;5.924;2023-03-03T02:04:00;17.20;;;9.90;;
9665;SDS011;4871;52.004;5.924;2023-03-03T02:05:00;17.20;;;9.90;;
9665;SDS011;4871;52.004;5.924;2023-03-03T02:06:01;17.20;;;9.90;;
9665;SDS011;4871;52.004;5.924;2023-03-03T02:07:01;17.20;;;9.90;;
9665;SDS011;4871;52.004;5.924;2023-03-03T02:08:00;17.20;;;9.90;;
9665;SDS011;4871;52.004;5.924;2023-03-03T02:09:03;17.20;;;9.90;;
9665;SDS011;4871;52.004;5.924;2023-03-03T02:10:03;17.20;;;9.90;;
9665;SDS011;4871;52.004;5.924;2023-03-03T02:11:00;17.20;;;9.90;;
9665;SDS011;4871;52.004;5.924;2023-03-03T02:12:01;17.20;;;9.90;;
9665;SDS011;4871;52.004;5.924;2023-03-03T02:13:00;17.20;;;9.90;;
9665;SDS011;4871;52.004;5.924;2023-03-03T02:14:00;17.20;;;9.90;;
9665;SDS011;4871;52.004;5.924;2023-03-03T02:15:00;17.20;;;9.90;;
9665;SDS011;4871;52.004;5.924;2023-03-03T02:16:00;17.20;;;9.90;;
9665;SDS011;4871;52.004;5.924;2023-03-03T02:17:00;18.30;;;10.40;;
9665;SDS011;4871;52.004;5.924;2023-03-03T02:18:01;18.30;;;10.40;;
9665;SDS011;4871;52.004;5.924;2023-03-03T02:19:00;18.30;;;10.40;;
9665;SDS011;4871;52.004;5.924;2023-03-03T02:20:02;18.30;;;10.40;;
9665;SDS011;4871;52.004;5.924;2023-03-03T02:21:01;18.30;;;10.40;;
9665;SDS011;4871;52.004;5.924;2023-03-03T02:22:01;18.30;;;10.40;;
9665;SDS011;4871;52.004;5.924;2023-03-03T02:23:03;18.30;;;10.40;;
9665;SDS011;4871;52.004;5.924;2023-03-03T02:24:02;18.30;;;10.40;;
9665;SDS011;4871;52.004;5.924;2023-03-03T02:25:01;18.30;;;10.40;;
9665;SDS011;4871;52.004;5.924;2023-03-03T02:26:04;18.30;;;10.40;;
9665;SDS011;4871;52.004;5.924;2023-03-03T02:27:00;18.30;;;10.40;;
9665;SDS011;4871;52.004;5.924;2023-03-03T02:28:00;18.30;;;10.40;;
9665;SDS011;4871;52.004;5.924;2023-03-03T02:29:00;18.30;;;10.40;;
9665;SDS011;4871;52.004;5.924;2023-03-03T02:30:09;18.30;;;10.40;;
9665;SDS011;4871;52.004;5.924;2023-03-03T02:31:00;18.30;;;10.40;;
9665;SDS011;4871;52.004;5.924;2023-03-03T02:32:00;18.30;;;10.40;;
9665;SDS011;4871;52.004;5.924;2023-03-03T02:33:00;18.30;;;10.40;;
9665;SDS011;4871;52.004;5.924;2023-03-03T02:34:00;18.30;;;10.40;;
9665;SDS011;4871;52.004;5.924;2023-03-03T02:35:00;18.30;;;10.40;;
9665;SDS011;4871;52.004;5.924;2023-03-03T02:36:00;18.30;;;10.40;;
9665;SDS011;4871;52.004;5.924;2023-03-03T02:37:01;18.30;;;10.40;;
9665;SDS011;4871;52.004;5.924;2023-03-03T02:38:02;18.30;;;10.40;;
9665;SDS011;4871;52.004;5.924;2023-03-03T02:39:02;18.30;;;10.40;;
9665;SDS011;4871;52.004;5.924;2023-03-03T02:40:00;18.30;;;10.40;;
9665;SDS011;4871;52.004;5.924;2023-03-03T02:41:02;18.30;;;10.40;;
9665;SDS011;4871;52.004;5.924;2023-03-03T02:42:01;18.30;;;10.40;;
9665;SDS011;4871;52.004;5.924;2023-03-03T02:43:00;18.30;;;10.40;;
9665;SDS011;4871;52.004;5.924;2023-03-03T02:44:01;18.30;;;10.40;;
9665;SDS011;4871;52.004;5.924;2023-03-03T02:45:00;18.30;;;10.40;;
9665;SDS011;4871;52.004;5.924;2023-03-03T02:46:00;14.60;;;10.10;;
9665;SDS011;4871;52.004;5.924;2023-03-03T02:47:00;14.60;;;10.10;;
9665;SDS011;4871;52.004;5.924;2023-03-03T02:48:00;14.60;;;10.10;;
9665;SDS011;4871;52.004;5.924;2023-03-03T02:49:00;14.60;;;10.10;;
9665;SDS011;4871;52.004;5.924;2023-03-03T02:50:00;14.60;;;10.10;;
9665;SDS011;4871;52.004;5.924;2023-03-03T02:51:00;14.60;;;10.10;;
9665;SDS011;4871;52.004;5.924;2023-03-03T02:52:00;14.60;;;10.10;;
9665;SDS011;4871;52.004;5.924;2023-03-03T02:53:00;14.60;;;10.10;;
9665;SDS011;4871;52.004;5.924;2023-03-03T02:54:00;14.60;;;10.10;;
9665;SDS011;4871;52.004;5.924;2023-03-03T02:55:00;14.60;;;10.10;;
9665;SDS011;4871;52.004;5.924;2023-03-03T02:56:00;14.60;;;10.10;;
9665;SDS011;4871;52.004;5.924;2023-03-03T02:57:00;14.60;;;10.10;;
9665;SDS011;4871;52.004;5.924;2023-03-03T02:58:00;14.60;;;10.10;;
9665;SDS011;4871;52.004;5.924;2023-03-03T02:59:00;14.60;;;10.10;;
9665;SDS011;4871;52.004;5.924;2023-03-03T03:00:00;14.60;;;10.10;;
9665;SDS011;4871;52.004;5.924;2023-03-03T03:01:00;14.60;;;10.10;;
9665;SDS011;4871;52.004;5.924;2023-03-03T03:02:00;14.60;;;10.10;;
9665;SDS011;4871;52.004;5.924;2023-03-03T03:03:00;14.60;;;10.10;;
9665;SDS011;4871;52.004;5.924;2023-03-03T03:04:00;14.60;;;10.10;;
9665;SDS011;4871;52.004;5.924;2023-03-03T03:05:00;14.60;;;10.10;;
9665;SDS011;4871;52.004;5.924;2023-03-03T03:06:00;14.60;;;10.10;;
9665;SDS011;4871;52.004;5.924;2023-03-03T03:07:00;14.60;;;10.10;;
9665;SDS011;4871;52.004;5.924;2023-03-03T03:08:00;14.60;;;10.10;;
9665;SDS011;4871;52.004;5.924;2023-03-03T03:09:00;14.60;;;10.10;;
9665;SDS011;4871;52.004;5.924;2023-03-03T03:10:00;14.60;;;10.10;;
9665;SDS011;4871;52.004;5.924;2023-03-03T03:11:00;14.60;;;10.10;;
9665;SDS011;4871;52.004;5.924;2023-03-03T03:12:01;14.60;;;10.10;;
9665;SDS011;4871;52.004;5.924;2023-03-03T03:13:00;14.60;;;10.10;;
9665;SDS011;4871;52.004;5.924;2023-03-03T03:14:00;14.60;;;10.10;;
9665;SDS011;4871;52.004;5.924;2023-03-03T03:15:00;14.60;;;10.10;;
9665;SDS011;4871;52.004;5.924;2023-03-03T03:16:00;17.40;;;10.50;;
9665;SDS011;4871;52.004;5.924;2023-03-03T03:17:00;17.40;;;10.50;;
9665;SDS011;4871;52.004;5.924;2023-03-03T03:18:00;17.40;;;10.50;;
9665;SDS011;4871;52.004;5.924;2023-03-03T03:19:00;17.40;;;10.50;;
9665;SDS011;4871;52.004;5.924;2023-03-03T03:20:00;17.40;;;10.50;;
9665;SDS011;4871;52.004;5.924;2023-03-03T03:21:08;17.40;;;10.50;;
9665;SDS011;4871;52.004;5.924;2023-03-03T03:22:00;17.40;;;10.50;;
9665;SDS011;4871;52.004;5.924;2023-03-03T03:23:00;17.40;;;10.50;;
9665;SDS011;4871;52.004;5.924;2023-03-03T03:24:00;17.40;;;10.50;;
9665;SDS011;4871;52.004;5.924;2023-03-03T03:25:00;17.40;;;10.50;;
9665;SDS011;4871;52.004;5.924;2023-03-03T03:26:00;17.40;;;10.50;;
9665;SDS011;4871;52.004;5.924;2023-03-03T03:27:00;17.40;;;10.50;;
9665;SDS011;4871;52.004;5.924;2023-03-03T03:28:00;17.40;;;10.50;;
9665;SDS011;4871;52.004;5.924;2023-03-03T03:29:00;17.40;;;10.50;;
9665;SDS011;4871;52.004;5.924;2023-03-03T03:30:00;17.40;;;10.50;;
9665;SDS011;4871;52.004;5.924;2023-03-03T03:31:00;17.40;;;10.50;;
9665;SDS011;4871;52.004;5.924;2023-03-03T03:32:00;17.40;;;10.50;;
9665;SDS011;4871;52.004;5.924;2023-03-03T03:33:00;17.40;;;10.50;;
9665;SDS011;4871;52.004;5.924;2023-03-03T03:34:00;17.40;;;10.50;;
9665;SDS011;4871;52.004;5.924;2023-03-03T03:35:00;17.40;;;10.50;;
9665;SDS011;4871;52.004;5.924;2023-03-03T03:36:00;17.40;;;10.50;;
9665;SDS011;4871;52.004;5.924;2023-03-03T03:37:00;17.40;;;10.50;;
9665;SDS011;4871;52.004;5.924;2023-03-03T03:38:00;17.40;;;10.50;;
9665;SDS011;4871;52.004;5.924;2023-03-03T03:39:01;17.40;;;10.50;;
9665;SDS011;4871;52.004;5.924;2023-03-03T03:40:00;17.40;;;10.50;;
9665;SDS011;4871;52.004;5.924;2023-03-03T03:41:00;17.40;;;10.50;;
9665;SDS011;4871;52.004;5.924;2023-03-03T03:42:00;17.40;;;10.50;;
9665;SDS011;4871;52.004;5.924;2023-03-03T03:43:00;17.40;;;10.50;;
9665;SDS011;4871;52.004;5.924;2023-03-03T03:44:00;17.40;;;10.50;;
9665;SDS011;4871;52.004;5.924;2023-03-03T03:45:00;17.40;;;10.50;;
9665;SDS011;4871;52.004;5.924;2023-03-03T03:46:00;20.50;;;11.20;;
9665;SDS011;4871;52.004;5.924;2023-03-03T03:47:00;20.50;;;11.20;;
9665;SDS011;4871;52.004;5.924;2023-03-03T03:48:00;20.50;;;11.20;;
9665;SDS011;4871;52.004;5.924;2023-03-03T03:49:00;20.50;;;11.20;;
9665;SDS011;4871;52.004;5.924;2023-03-03T03:50:00;20.50;;;11.20;;
9665;SDS011;4871;52.004;5.924;2023-03-03T03:51:00;20.50;;;11.20;;
9665;SDS011;4871;52.004;5.924;2023-03-03T03:52:01;20.50;;;11.20;;
9665;SDS011;4871;52.004;5.924;2023-03-03T03:53:00;20.50;;;11.20;;
9665;SDS011;4871;52.004;5.924;2023-03-03T03:54:00;20.50;;;11.20;;
9665;SDS011;4871;52.004;5.924;2023-03-03T03:55:00;20.50;;;11.20;;
9665;SDS011;4871;52.004;5.924;2023-03-03T03:56:00;20.50;;;11.20;;
9665;SDS011;4871;52.004;5.924;2023-03-03T03:57:00;20.50;;;11.20;;
9665;SDS011;4871;52.004;5.924;2023-03-03T03:58:00;20.50;;;11.20;;
9665;SDS011;4871;52.004;5.924;2023-03-03T03:59:00;20.50;;;11.20;;
9665;SDS011;4871;52.004;5.924;2023-03-03T04:00:00;20.50;;;11.20;;
9665;SDS011;4871;52.004;5.924;2023-03-03T04:01:00;20.50;;;11.20;;
9665;SDS011;4871;52.004;5.924;2023-03-03T04:02:00;20.50;;;11.20;;
9665;SDS011;4871;52.004;5.924;2023-03-03T04:03:00;20.50;;;11.20;;
9665;SDS011;4871;52.004;5.924;2023-03-03T04:04:00;20.50;;;11.20;;
9665;SDS011;4871;52.004;5.924;2023-03-03T04:05:00;20.50;;;11.20;;
9665;SDS011;4871;52.004;5.924;2023-03-03T04:06:00;20.50;;;11.20;;
9665;SDS011;4871;52.004;5.924;2023-03-03T04:07:00;20.50;;;11.20;;
9665;SDS011;4871;52.004;5.924;2023-03-03T04:08:00;20.50;;;11.20;;
9665;SDS011;4871;52.004;5.924;2023-03-03T04:09:00;20.50;;;11.20;;
9665;SDS011;4871;52.004;5.924;2023-03-03T04:10:00;20.50;;;11.20;;
9665;SDS011;4871;52.004;5.924;2023-03-03T04:11:00;20.50;;;11.20;;
9665;SDS011;4871;52.004;5.924;2023-03-03T04:12:00;20.50;;;11.20;;
9665;SDS011;4871;52.004;5.924;2023-03-03T04:13:00;20.50;;;11.20;;
9665;SDS011;4871;52.004;5.924;2023-03-03T04:14:00;20.50;;;11.20;;
9665;SDS011;4871;52.004;5.924;2023-03-03T04:15:00;20.50;;;11.20;;
9665;SDS011;4871;52.004;5.924;2023-03-03T04:16:00;23.90;;;12.10;;
9665;SDS011;4871;52.004;5.924;2023-03-03T04:17:00;23.90;;;12.10;;
9665;SDS011;4871;52.004;5.924;2023-03-03T04:18:00;23.90;;;12.10;;
9665;SDS011;4871;52.004;5.924;2023-03-03T04:19:00;23.90;;;12.10;;
9665;SDS011;4871;52.004;5.924;2023-03-03T04:20:01;23.90;;;12.10;;
9665;SDS011;4871;52.004;5.924;2023-03-03T04:21:00;23.90;;;12.10;;
9665;SDS011;4871;52.004;5.924;2023-03-03T04:22:00;23.90;;;12.10;;
9665;SDS011;4871;52.004;5.924;2023-03-03T04:23:00;23.90;;;12.10;;
9665;SDS011;4871;52.004;5.924;2023-03-03T04:24:00;23.90;;;12.10;;
9665;SDS011;4871;52.004;5.924;2023-03-03T04:25:04;23.90;;;12.10;;
9665;SDS011;4871;52.004;5.924;2023-03-03T04:26:00;23.90;;;12.10;;
9665;SDS011;4871;52.004;5.924;2023-03-03T04:27:00;23.90;;;12.10;;
9665;SDS011;4871;52.004;5.924;2023-03-03T04:28:00;23.90;;;12.10;;
9665;SDS011;4871;52.004;5.924;2023-03-03T04:29:00;23.90;;;12.10;;
9665;SDS011;4871;52.004;5.924;2023-03-03T04:30:00;23.90;;;12.10;;
9665;SDS011;4871;52.004;5.924;2023-03-03T04:31:00;23.90;;;12.10;;
9665;SDS011;4871;52.004;5.924;2023-03-03T04:32:00;23.90;;;12.10;;
9665;SDS011;4871;52.004;5.924;2023-03-03T04:33:00;23.90;;;12.10;;
9665;SDS011;4871;52.004;5.924;2023-03-03T04:34:00;23.90;;;12.10;;
9665;SDS011;4871;52.004;5.924;2023-03-03T04:35:00;23.90;;;12.10;;
9665;SDS011;4871;52.004;5.924;2023-03-03T04:36:00;23.90;;;12.10;;
9665;SDS011;4871;52.004;5.924;2023-03-03T04:37:00;23.90;;;12.10;;
9665;SDS011;4871;52.004;5.924;2023-03-03T04:38:00;23.90;;;12.10;;
9665;SDS011;4871;52.004;5.924;2023-03-03T04:39:00;23.90;;;12.10;;
9665;SDS011;4871;52.004;5.924;2023-03-03T04:40:00;23.90;;;12.10;;
9665;SDS011;4871;52.004;5.924;2023-03-03T04:41:00;23.90;;;12.10;;
9665;SDS011;4871;52.004;5.924;2023-03-03T04:42:00;23.90;;;12.10;;
9665;SDS011;4871;52.004;5.924;2023-03-03T04:43:00;23.90;;;12.10;;
9665;SDS011;4871;52.004;5.924;2023-03-03T04:44:00;23.90;;;12.10;;
9665;SDS011;4871;52.004;5.924;2023-03-03T04:45:00;23.90;;;12.10;;
9665;SDS011;4871;52.004;5.924;2023-03-03T04:46:00;21.10;;;11.70;;
9665;SDS011;4871;52.004;5.924;2023-03-03T04:47:00;21.10;;;11.70;;
9665;SDS011;4871;52.004;5.924;2023-03-03T04:48:00;21.10;;;11.70;;
9665;SDS011;4871;52.004;5.924;2023-03-03T04:49:00;21.10;;;11.70;;
9665;SDS011;4871;52.004;5.924;2023-03-03T04:50:00;21.10;;;11.70;;
9665;SDS011;4871;52.004;5.924;2023-03-03T04:51:00;21.10;;;11.70;;
9665;SDS011;4871;52.004;5.924;2023-03-03T04:52:00;21.10;;;11.70;;
9665;SDS011;4871;52.004;5.924;2023-03-03T04:53:00;21.10;;;11.70;;
9665;SDS011;4871;52.004;5.924;2023-03-03T04:54:00;21.10;;;11.70;;
9665;SDS011;4871;52.004;5.924;2023-03-03T04:55:00;21.10;;;11.70;;
9665;SDS011;4871;52.004;5.924;2023-03-03T04:56:01;21.10;;;11.70;;
9665;SDS011;4871;52.004;5.924;2023-03-03T04:57:00;21.10;;;11.70;;
9665;SDS011;4871;52.004;5.924;2023-03-03T04:58:00;21.10;;;11.70;;
9665;SDS011;4871;52.004;5.924;2023-03-03T04:59:00;21.10;;;11.70;;
9665;SDS011;4871;52.004;5.924;2023-03-03T05:00:00;21.10;;;11.70;;
9665;SDS011;4871;52.004;5.924;2023-03-03T05:01:00;21.10;;;11.70;;
9665;SDS011;4871;52.004;5.924;2023-03-03T05:02:00;21.10;;;11.70;;
9665;SDS011;4871;52.004;5.924;2023-03-03T05:03:00;21.10;;;11.70;;
9665;SDS011;4871;52.004;5.924;2023-03-03T05:04:00;21.10;;;11.70;;
9665;SDS011;4871;52.004;5.924;2023-03-03T05:05:00;21.10;;;11.70;;
9665;SDS011;4871;52.004;5.924;2023-03-03T05:06:00;21.10;;;11.70;;
9665;SDS011;4871;52.004;5.924;2023-03-03T05:07:00;21.10;;;11.70;;
9665;SDS011;4871;52.004;5.924;2023-03-03T05:08:00;21.10;;;11.70;;
9665;SDS011;4871;52.004;5.924;2023-03-03T05:09:00;21.10;;;11.70;;
9665;SDS011;4871;52.004;5.924;2023-03-03T05:10:00;21.10;;;11.70;;
9665;SDS011;4871;52.004;5.924;2023-03-03T05:11:01;21.10;;;11.70;;
9665;SDS011;4871;52.004;5.924;2023-03-03T05:12:00;21.10;;;11.70;;
9665;SDS011;4871;52.004;5.924;2023-03-03T05:13:00;21.10;;;11.70;;
9665;SDS011;4871;52.004;5.924;2023-03-03T05:14:01;21.10;;;11.70;;
9665;SDS011;4871;52.004;5.924;2023-03-03T05:15:00;21.10;;;11.70;;
9665;SDS011;4871;52.004;5.924;2023-03-03T05:16:00;21.10;;;11.70;;
9665;SDS011;4871;52.004;5.924;2023-03-03T05:17:00;21.10;;;11.70;;
9665;SDS011;4871;52.004;5.924;2023-03-03T05:18:00;21.10;;;11.70;;
9665;SDS011;4871;52.004;5.924;2023-03-03T05:19:00;21.10;;;11.70;;
9665;SDS011;4871;52.004;5.924;2023-03-03T05:20:00;21.10;;;11.70;;
9665;SDS011;4871;52.004;5.924;2023-03-03T05:21:00;21.10;;;11.70;;
9665;SDS011;4871;52.004;5.924;2023-03-03T05:22:01;21.10;;;11.70;;
9665;SDS011;4871;52.004;5.924;2023-03-03T05:23:00;21.10;;;11.70;;
9665;SDS011;4871;52.004;5.924;2023-03-03T05:24:00;21.10;;;11.70;;
9665;SDS011;4871;52.004;5.924;2023-03-03T05:25:00;21.10;;;11.70;;
9665;SDS011;4871;52.004;5.924;2023-03-03T05:26:00;21.10;;;11.70;;
9665;SDS011;4871;52.004;5.924;2023-03-03T05:27:00;21.10;;;11.70;;
9665;SDS011;4871;52.004;5.924;2023-03-03T05:28:00;21.10;;;11.70;;
9665;SDS011;4871;52.004;5.924;2023-03-03T05:29:00;21.10;;;11.70;;
9665;SDS011;4871;52.004;5.924;2023-03-03T05:30:00;21.10;;;11.70;;
9665;SDS011;4871;52.004;5.924;2023-03-03T05:31:00;21.10;;;11.70;;
9665;SDS011;4871;52.004;5.924;2023-03-03T05:32:00;21.10;;;11.70;;
9665;SDS011;4871;52.004;5.924;2023-03-03T05:33:00;21.10;;;11.70;;
9665;SDS011;4871;52.004;5.924;2023-03-03T05:34:00;21.10;;;11.70;;
9665;SDS011;4871;52.004;5.924;2023-03-03T05:35:00;21.10;;;11.70;;
9665;SDS011;4871;52.004;5.924;2023-03-03T05:36:00;21.10;;;11.70;;
9665;SDS011;4871;52.004;5.924;2023-03-03T05:37:00;21.10;;;11.70;;
9665;SDS011;4871;52.004;5.924;2023-03-03T05:38:00;21.10;;;11.70;;
9665;SDS011;4871;52.004;5.924;2023-03-03T05:39:00;21.10;;;11.70;;
9665;SDS011;4871;52.004;5.924;2023-03-03T05:40:00;21.10;;;11.70;;
9665;SDS011;4871;52.004;5.924;2023-03-03T05:41:00;21.10;;;11.70;;
9665;SDS011;4871;52.004;5.924;2023-03-03T05:42:00;21.10;;;11.70;;
9665;SDS011;4871;52.004;5.924;2023-03-03T05:43:00;21.10;;;11.70;;
9665;SDS011;4871;52.004;5.924;2023-03-03T05:44:00;21.10;;;11.70;;
9665;SDS011;4871;52.004;5.924;2023-03-03T05:45:00;21.10;;;11.70;;
9665;SDS011;4871;52.004;5.924;2023-03-03T05:46:00;21.10;;;11.70;;
9665;SDS011;4871;52.004;5.924;2023-03-03T05:47:00;21.10;;;11.70;;
9665;SDS011;4871;52.004;5.924;2023-03-03T05:48:00;21.10;;;11.70;;
9665;SDS011;4871;52.004;5.924;2023-03-03T05:49:00;21.10;;;11.70;;
9665;SDS011;4871;52.004;5.924;2023-03-03T05:50:00;21.10;;;11.70;;
9665;SDS011;4871;52.004;5.924;2023-03-03T05:51:00;21.10;;;11.70;;
9665;SDS011;4871;52.004;5.924;2023-03-03T05:52:00;21.10;;;11.70;;
9665;SDS011;4871;52.004;5.924;2023-03-03T05:53:00;21.10;;;11.70;;
9665;SDS011;4871;52.004;5.924;2023-03-03T05:54:00;21.10;;;11.70;;
9665;SDS011;4871;52.004;5.924;2023-03-03T05:55:00;21.10;;;11.70;;
9665;SDS011;4871;52.004;5.924;2023-03-03T05:56:00;21.10;;;11.70;;
9665;SDS011;4871;52.004;5.924;2023-03-03T05:57:00;21.10;;;11.70;;
9665;SDS011;4871;52.004;5.924;2023-03-03T05:58:00;21.10;;;11.70;;
9665;SDS011;4871;52.004;5.924;2023-03-03T05:59:00;21.10;;;11.70;;
9665;SDS011;4871;52.004;5.924;2023-03-03T06:00:00;21.10;;;11.70;;
9665;SDS011;4871;52.004;5.924;2023-03-03T06:01:00;21.10;;;11.70;;
9665;SDS011;4871;52.004;5.924;2023-03-03T06:02:00;21.10;;;11.70;;
9665;SDS011;4871;52.004;5.924;2023-03-03T06:03:00;21.10;;;11.70;;
9665;SDS011;4871;52.004;5.924;2023-03-03T06:04:00;21.10;;;11.70;;